sensor_id;sensor_type;location;lat;lon;timestamp;P1;durP1;ratioP1;P2;durP2;ratioP2
38935;SDS011;66589;47.458;9.644;2023-05-10T03:16:14;0.75;;;0.00;;
38935;SDS011;66589;47.458;9.644;2023-05-10T03:18:48;0.77;;;0.00;;
38935;SDS011;66589;47.458;9.644;2023-05-10T03:21:20;2.45;;;0.00;;
38935;SDS011;66589;47.458;9.644;2023-05-10T03:23:51;0.75;;;0.10;;
38935;SDS011;66589;47.458;9.644;2023-05-10T03:26:26;0.57;;;0.10;;
38935;SDS011;66589;47.458;9.644;2023-05-10T03:28:53;0.35;;;0.10;;
38935;SDS011;66589;47.458;9.644;2023-05-10T03:31:20;2.00;;;0.00;;
38935;SDS011;66589;47.458;9.644;2023-05-10T03:33:50;2.08;;;0.10;;
38935;SDS011;66589;47.458;9.644;2023-05-10T03:36:17;0.40;;;0.10;;
38935;SDS011;66589;47.458;9.644;2023-05-10T03:38:43;0.63;;;0.10;;
38935;SDS011;66589;47.458;9.644;2023-05-10T03:41:08;1.48;;;0.10;;
38935;SDS011;66589;47.458;9.644;2023-05-10T03:43:34;1.50;;;0.10;;
38935;SDS011;66589;47.458;9.644;2023-05-10T03:46:03;0.63;;;0.00;;
38935;SDS011;66589;47.458;9.644;2023-05-10T03:48:30;0.40;;;0.00;;
38935;SDS011;66589;47.458;9.644;2023-05-10T03:50:57;0.82;;;0.00;;
38935;SDS011;66589;47.458;9.644;2023-05-10T03:53:22;1.08;;;0.10;;
38935;SDS011;66589;47.458;9.644;2023-05-10T03:55:48;0.95;;;0.10;;
38935;SDS011;66589;47.458;9.644;2023-05-10T03:58:14;1.00;;;0.10;;
38935;SDS011;66589;47.458;9.644;2023-05-10T04:00:40;1.40;;;0.00;;
38935;SDS011;66589;47.458;9.644;2023-05-10T04:03:09;2.22;;;0.10;;
38935;SDS011;66589;47.458;9.644;2023-05-10T04:05:35;1.30;;;0.05;;
38935;SDS011;66589;47.458;9.644;2023-05-10T04:08:01;3.45;;;0.10;;
38935;SDS011;66589;47.458;9.644;2023-05-10T04:10:27;1.30;;;0.03;;
38935;SDS011;66589;47.458;9.644;2023-05-10T04:12:53;0.98;;;0.10;;
38935;SDS011;66589;47.458;9.644;2023-05-10T04:15:18;1.55;;;0.20;;
38935;SDS011;66589;47.458;9.644;2023-05-10T04:17:44;0.85;;;0.00;;
38935;SDS011;66589;47.458;9.644;2023-05-10T04:20:10;1.55;;;0.10;;
38935;SDS011;66589;47.458;9.644;2023-05-10T04:22:36;1.45;;;0.20;;
38935;SDS011;66589;47.458;9.644;2023-05-10T04:25:03;1.10;;;0.10;;
38935;SDS011;66589;47.458;9.644;2023-05-10T04:27:29;2.88;;;0.10;;
38935;SDS011;66589;47.458;9.644;2023-05-10T04:29:56;1.85;;;0.13;;
38935;SDS011;66589;47.458;9.644;2023-05-10T04:32:22;2.80;;;0.00;;
38935;SDS011;66589;47.458;9.644;2023-05-10T04:34:48;3.83;;;0.10;;
38935;SDS011;66589;47.458;9.644;2023-05-10T04:37:14;1.38;;;0.47;;
38935;SDS011;66589;47.458;9.644;2023-05-10T04:39:39;1.00;;;0.10;;
38935;SDS011;66589;47.458;9.644;2023-05-10T04:42:05;0.63;;;0.05;;
38935;SDS011;66589;47.458;9.644;2023-05-10T04:44:31;0.75;;;0.10;;
38935;SDS011;66589;47.458;9.644;2023-05-10T04:46:58;0.82;;;0.10;;
38935;SDS011;66589;47.458;9.644;2023-05-10T04:49:25;1.15;;;0.10;;
38935;SDS011;66589;47.458;9.644;2023-05-10T04:51:50;0.88;;;0.10;;
38935;SDS011;66589;47.458;9.644;2023-05-10T04:54:16;0.50;;;0.13;;
38935;SDS011;66589;47.458;9.644;2023-05-10T04:56:42;1.33;;;0.10;;
38935;SDS011;66589;47.458;9.644;2023-05-10T04:59:07;0.47;;;0.08;;
38935;SDS011;66589;47.458;9.644;2023-05-10T05:01:33;2.53;;;0.10;;
38935;SDS011;66589;47.458;9.644;2023-05-10T05:03:59;1.98;;;0.10;;
38935;SDS011;66589;47.458;9.644;2023-05-10T05:06:25;0.75;;;0.10;;
38935;SDS011;66589;47.458;9.644;2023-05-10T05:08:52;0.52;;;0.10;;
38935;SDS011;66589;47.458;9.644;2023-05-10T05:11:18;1.73;;;0.10;;
38935;SDS011;66589;47.458;9.644;2023-05-10T05:13:43;0.52;;;0.00;;
38935;SDS011;66589;47.458;9.644;2023-05-10T05:16:09;0.52;;;0.10;;
38935;SDS011;66589;47.458;9.644;2023-05-10T05:18:36;1.20;;;0.00;;
38935;SDS011;66589;47.458;9.644;2023-05-10T05:21:01;0.82;;;0.10;;
38935;SDS011;66589;47.458;9.644;2023-05-10T05:23:27;3.22;;;0.63;;
38935;SDS011;66589;47.458;9.644;2023-05-10T05:25:53;2.25;;;1.08;;
38935;SDS011;66589;47.458;9.644;2023-05-10T05:28:19;2.08;;;0.82;;
38935;SDS011;66589;47.458;9.644;2023-05-10T05:30:45;2.13;;;0.43;;
38935;SDS011;66589;47.458;9.644;2023-05-10T05:33:12;0.88;;;0.20;;
38935;SDS011;66589;47.458;9.644;2023-05-10T05:35:38;4.07;;;1.10;;
38935;SDS011;66589;47.458;9.644;2023-05-10T05:38:04;2.33;;;0.70;;
38935;SDS011;66589;47.458;9.644;2023-05-10T05:40:30;2.05;;;0.22;;
38935;SDS011;66589;47.458;9.644;2023-05-10T05:42:56;1.27;;;0.40;;
38935;SDS011;66589;47.458;9.644;2023-05-10T05:45:21;1.30;;;0.20;;
38935;SDS011;66589;47.458;9.644;2023-05-10T05:47:47;0.90;;;0.28;;
38935;SDS011;66589;47.458;9.644;2023-05-10T05:50:13;1.30;;;0.20;;
38935;SDS011;66589;47.458;9.644;2023-05-10T05:52:39;1.35;;;0.20;;
38935;SDS011;66589;47.458;9.644;2023-05-10T05:55:04;2.40;;;0.32;;
38935;SDS011;66589;47.458;9.644;2023-05-10T05:57:30;10.15;;;0.40;;
38935;SDS011;66589;47.458;9.644;2023-05-10T05:59:56;2.13;;;0.10;;
38935;SDS011;66589;47.458;9.644;2023-05-10T06:02:22;1.23;;;0.13;;
38935;SDS011;66589;47.458;9.644;2023-05-10T06:04:47;2.22;;;0.10;;
38935;SDS011;66589;47.458;9.644;2023-05-10T06:07:13;0.70;;;0.10;;
38935;SDS011;66589;47.458;9.644;2023-05-10T06:09:39;0.50;;;0.00;;
38935;SDS011;66589;47.458;9.644;2023-05-10T06:12:04;0.35;;;0.03;;
38935;SDS011;66589;47.458;9.644;2023-05-10T06:14:30;0.40;;;0.03;;
38935;SDS011;66589;47.458;9.644;2023-05-10T06:16:56;0.32;;;0.08;;
38935;SDS011;66589;47.458;9.644;2023-05-10T06:19:22;0.88;;;0.10;;
38935;SDS011;66589;47.458;9.644;2023-05-10T06:21:47;0.60;;;0.10;;
38935;SDS011;66589;47.458;9.644;2023-05-10T06:24:13;1.00;;;0.00;;
38935;SDS011;66589;47.458;9.644;2023-05-10T06:26:39;2.90;;;0.10;;
38935;SDS011;66589;47.458;9.644;2023-05-10T06:29:04;0.75;;;0.00;;
38935;SDS011;66589;47.458;9.644;2023-05-10T06:31:30;2.97;;;0.10;;
38935;SDS011;66589;47.458;9.644;2023-05-10T06:33:55;0.82;;;0.10;;
38935;SDS011;66589;47.458;9.644;2023-05-10T06:36:22;0.73;;;0.10;;
38935;SDS011;66589;47.458;9.644;2023-05-10T06:38:49;1.02;;;0.13;;
38935;SDS011;66589;47.458;9.644;2023-05-10T06:41:16;2.90;;;0.17;;
38935;SDS011;66589;47.458;9.644;2023-05-10T06:43:41;1.17;;;0.20;;
38935;SDS011;66589;47.458;9.644;2023-05-10T06:46:08;1.30;;;0.10;;
38935;SDS011;66589;47.458;9.644;2023-05-10T06:48:34;1.88;;;0.10;;
38935;SDS011;66589;47.458;9.644;2023-05-10T06:51:00;2.88;;;0.20;;
38935;SDS011;66589;47.458;9.644;2023-05-10T06:53:25;0.60;;;0.10;;
38935;SDS011;66589;47.458;9.644;2023-05-10T06:55:51;1.27;;;0.15;;
38935;SDS011;66589;47.458;9.644;2023-05-10T06:58:17;1.02;;;0.20;;
38935;SDS011;66589;47.458;9.644;2023-05-10T07:00:42;1.27;;;0.10;;
38935;SDS011;66589;47.458;9.644;2023-05-10T07:03:10;5.18;;;0.10;;
38935;SDS011;66589;47.458;9.644;2023-05-10T07:05:35;0.88;;;0.10;;
38935;SDS011;66589;47.458;9.644;2023-05-10T07:08:01;2.72;;;0.13;;
38935;SDS011;66589;47.458;9.644;2023-05-10T07:10:27;2.92;;;0.10;;
38935;SDS011;66589;47.458;9.644;2023-05-10T07:12:53;0.75;;;0.10;;
38935;SDS011;66589;47.458;9.644;2023-05-10T07:15:19;0.65;;;0.03;;
38935;SDS011;66589;47.458;9.644;2023-05-10T07:17:44;1.02;;;0.10;;
38935;SDS011;66589;47.458;9.644;2023-05-10T07:20:10;1.08;;;0.10;;
38935;SDS011;66589;47.458;9.644;2023-05-10T07:22:36;1.95;;;0.08;;
38935;SDS011;66589;47.458;9.644;2023-05-10T07:25:02;1.27;;;0.30;;
38935;SDS011;66589;47.458;9.644;2023-05-10T07:27:28;1.25;;;0.20;;
38935;SDS011;66589;47.458;9.644;2023-05-10T07:29:54;1.95;;;0.20;;
38935;SDS011;66589;47.458;9.644;2023-05-10T07:32:20;3.28;;;0.13;;
38935;SDS011;66589;47.458;9.644;2023-05-10T07:34:46;2.88;;;0.17;;
38935;SDS011;66589;47.458;9.644;2023-05-10T07:37:12;0.70;;;0.20;;
38935;SDS011;66589;47.458;9.644;2023-05-10T07:39:37;2.88;;;0.13;;
38935;SDS011;66589;47.458;9.644;2023-05-10T07:42:03;1.85;;;0.10;;
38935;SDS011;66589;47.458;9.644;2023-05-10T07:44:29;0.32;;;0.08;;
38935;SDS011;66589;47.458;9.644;2023-05-10T07:46:55;0.50;;;0.10;;
38935;SDS011;66589;47.458;9.644;2023-05-10T07:49:20;1.13;;;0.10;;
38935;SDS011;66589;47.458;9.644;2023-05-10T07:51:46;1.40;;;0.20;;
38935;SDS011;66589;47.458;9.644;2023-05-10T07:54:12;2.13;;;0.30;;
38935;SDS011;66589;47.458;9.644;2023-05-10T07:56:38;0.73;;;0.05;;
38935;SDS011;66589;47.458;9.644;2023-05-10T07:59:05;2.10;;;0.20;;
38935;SDS011;66589;47.458;9.644;2023-05-10T08:01:32;1.00;;;0.20;;
38935;SDS011;66589;47.458;9.644;2023-05-10T08:03:58;4.18;;;0.20;;
38935;SDS011;66589;47.458;9.644;2023-05-10T08:06:25;1.20;;;0.13;;
38935;SDS011;66589;47.458;9.644;2023-05-10T08:08:52;0.65;;;0.10;;
38935;SDS011;66589;47.458;9.644;2023-05-10T08:11:19;1.48;;;0.13;;
38935;SDS011;66589;47.458;9.644;2023-05-10T08:13:45;1.10;;;0.10;;
38935;SDS011;66589;47.458;9.644;2023-05-10T08:16:12;2.00;;;0.10;;
38935;SDS011;66589;47.458;9.644;2023-05-10T08:18:38;1.90;;;0.10;;
38935;SDS011;66589;47.458;9.644;2023-05-10T08:21:04;1.75;;;0.10;;
38935;SDS011;66589;47.458;9.644;2023-05-10T08:23:30;0.30;;;0.00;;
38935;SDS011;66589;47.458;9.644;2023-05-10T08:25:56;3.03;;;0.05;;
38935;SDS011;66589;47.458;9.644;2023-05-10T08:28:22;5.25;;;0.00;;
38935;SDS011;66589;47.458;9.644;2023-05-10T08:30:47;9.73;;;0.10;;
38935;SDS011;66589;47.458;9.644;2023-05-10T08:33:14;8.40;;;0.15;;
38935;SDS011;66589;47.458;9.644;2023-05-10T08:35:40;4.57;;;0.10;;
38935;SDS011;66589;47.458;9.644;2023-05-10T08:38:06;4.75;;;0.10;;
38935;SDS011;66589;47.458;9.644;2023-05-10T08:40:32;2.60;;;0.10;;
38935;SDS011;66589;47.458;9.644;2023-05-10T08:43:04;0.63;;;0.00;;
38935;SDS011;66589;47.458;9.644;2023-05-10T08:45:35;0.70;;;0.03;;
38935;SDS011;66589;47.458;9.644;2023-05-10T08:48:04;5.28;;;0.10;;
38935;SDS011;66589;47.458;9.644;2023-05-10T08:50:31;0.70;;;0.10;;
38935;SDS011;66589;47.458;9.644;2023-05-10T08:53:00;3.78;;;0.13;;
38935;SDS011;66589;47.458;9.644;2023-05-10T08:55:29;1.85;;;0.13;;
38935;SDS011;66589;47.458;9.644;2023-05-10T08:57:55;5.55;;;0.13;;
38935;SDS011;66589;47.458;9.644;2023-05-10T09:00:21;2.53;;;0.13;;
38935;SDS011;66589;47.458;9.644;2023-05-10T09:02:49;2.25;;;0.15;;
38935;SDS011;66589;47.458;9.644;2023-05-10T09:05:15;4.82;;;0.13;;
38935;SDS011;66589;47.458;9.644;2023-05-10T09:07:42;2.58;;;0.10;;
38935;SDS011;66589;47.458;9.644;2023-05-10T09:10:08;1.13;;;0.10;;
38935;SDS011;66589;47.458;9.644;2023-05-10T09:12:35;5.57;;;0.20;;
38935;SDS011;66589;47.458;9.644;2023-05-10T09:15:02;2.65;;;0.20;;
38935;SDS011;66589;47.458;9.644;2023-05-10T09:17:28;2.05;;;0.20;;
38935;SDS011;66589;47.458;9.644;2023-05-10T09:19:58;0.73;;;0.10;;
38935;SDS011;66589;47.458;9.644;2023-05-10T09:22:25;1.58;;;0.10;;
38935;SDS011;66589;47.458;9.644;2023-05-10T09:27:46;0.93;;;0.10;;
38935;SDS011;66589;47.458;9.644;2023-05-10T09:30:22;1.85;;;0.30;;
38935;SDS011;66589;47.458;9.644;2023-05-10T09:35:16;2.47;;;0.43;;
38935;SDS011;66589;47.458;9.644;2023-05-10T09:37:48;6.13;;;1.67;;
38935;SDS011;66589;47.458;9.644;2023-05-10T09:40:19;2.55;;;0.50;;
38935;SDS011;66589;47.458;9.644;2023-05-10T09:45:28;1.17;;;0.30;;
38935;SDS011;66589;47.458;9.644;2023-05-10T09:47:57;1.25;;;0.10;;
38935;SDS011;66589;47.458;9.644;2023-05-10T09:50:24;0.70;;;0.10;;
38935;SDS011;66589;47.458;9.644;2023-05-10T09:53:00;1.58;;;0.10;;
38935;SDS011;66589;47.458;9.644;2023-05-10T09:55:41;0.85;;;0.10;;
38935;SDS011;66589;47.458;9.644;2023-05-10T09:58:14;0.85;;;0.03;;
38935;SDS011;66589;47.458;9.644;2023-05-10T10:00:41;1.55;;;0.10;;
38935;SDS011;66589;47.458;9.644;2023-05-10T10:03:12;1.38;;;0.20;;
38935;SDS011;66589;47.458;9.644;2023-05-10T10:05:40;2.67;;;0.20;;
38935;SDS011;66589;47.458;9.644;2023-05-10T10:08:07;0.52;;;0.10;;
38935;SDS011;66589;47.458;9.644;2023-05-10T10:10:33;2.38;;;0.05;;
38935;SDS011;66589;47.458;9.644;2023-05-10T10:13:00;0.95;;;0.10;;
38935;SDS011;66589;47.458;9.644;2023-05-10T10:15:26;0.60;;;0.10;;
38935;SDS011;66589;47.458;9.644;2023-05-10T10:17:52;0.70;;;0.10;;
38935;SDS011;66589;47.458;9.644;2023-05-10T10:20:19;0.80;;;0.10;;
38935;SDS011;66589;47.458;9.644;2023-05-10T10:22:47;0.43;;;0.22;;
38935;SDS011;66589;47.458;9.644;2023-05-10T10:25:14;3.40;;;0.28;;
38935;SDS011;66589;47.458;9.644;2023-05-10T10:35:47;3.03;;;0.03;;
38935;SDS011;66589;47.458;9.644;2023-05-10T10:38:14;3.92;;;0.10;;
38935;SDS011;66589;47.458;9.644;2023-05-10T10:40:41;1.50;;;0.10;;
38935;SDS011;66589;47.458;9.644;2023-05-10T10:43:26;0.68;;;0.10;;
38935;SDS011;66589;47.458;9.644;2023-05-10T10:46:09;1.10;;;0.03;;
38935;SDS011;66589;47.458;9.644;2023-05-10T10:48:49;0.63;;;0.10;;
38935;SDS011;66589;47.458;9.644;2023-05-10T10:51:32;1.15;;;0.30;;
38935;SDS011;66589;47.458;9.644;2023-05-10T10:54:08;1.42;;;0.10;;
38935;SDS011;66589;47.458;9.644;2023-05-10T10:56:35;1.23;;;0.10;;
38935;SDS011;66589;47.458;9.644;2023-05-10T10:59:00;0.90;;;0.15;;
38935;SDS011;66589;47.458;9.644;2023-05-10T11:01:26;1.65;;;0.03;;
38935;SDS011;66589;47.458;9.644;2023-05-10T11:06:32;2.15;;;0.08;;
38935;SDS011;66589;47.458;9.644;2023-05-10T11:09:08;3.72;;;0.40;;
38935;SDS011;66589;47.458;9.644;2023-05-10T11:11:36;0.90;;;0.20;;
38935;SDS011;66589;47.458;9.644;2023-05-10T11:14:14;1.75;;;0.10;;
38935;SDS011;66589;47.458;9.644;2023-05-10T11:16:46;2.95;;;0.20;;
38935;SDS011;66589;47.458;9.644;2023-05-10T11:19:12;1.08;;;0.10;;
38935;SDS011;66589;47.458;9.644;2023-05-10T11:21:46;3.72;;;0.15;;
38935;SDS011;66589;47.458;9.644;2023-05-10T11:24:17;1.92;;;0.13;;
38935;SDS011;66589;47.458;9.644;2023-05-10T11:26:45;2.42;;;0.20;;
38935;SDS011;66589;47.458;9.644;2023-05-10T11:29:12;0.80;;;0.20;;
38935;SDS011;66589;47.458;9.644;2023-05-10T11:31:44;1.73;;;0.10;;
38935;SDS011;66589;47.458;9.644;2023-05-10T11:34:12;2.95;;;0.30;;
38935;SDS011;66589;47.458;9.644;2023-05-10T11:36:55;13.10;;;0.77;;
38935;SDS011;66589;47.458;9.644;2023-05-10T11:39:25;5.32;;;0.10;;
38935;SDS011;66589;47.458;9.644;2023-05-10T11:41:52;10.43;;;0.40;;
38935;SDS011;66589;47.458;9.644;2023-05-10T11:44:18;15.68;;;0.85;;
38935;SDS011;66589;47.458;9.644;2023-05-10T11:46:44;11.90;;;0.22;;
38935;SDS011;66589;47.458;9.644;2023-05-10T11:49:10;2.70;;;0.30;;
38935;SDS011;66589;47.458;9.644;2023-05-10T11:51:36;15.25;;;0.75;;
38935;SDS011;66589;47.458;9.644;2023-05-10T11:54:06;2.33;;;0.20;;
38935;SDS011;66589;47.458;9.644;2023-05-10T11:56:33;1.90;;;0.17;;
38935;SDS011;66589;47.458;9.644;2023-05-10T11:58:59;13.85;;;0.30;;
38935;SDS011;66589;47.458;9.644;2023-05-10T12:01:27;21.75;;;1.42;;
38935;SDS011;66589;47.458;9.644;2023-05-10T12:03:54;1.02;;;0.20;;
38935;SDS011;66589;47.458;9.644;2023-05-10T12:06:26;8.02;;;0.30;;
38935;SDS011;66589;47.458;9.644;2023-05-10T12:08:53;2.83;;;0.28;;
38935;SDS011;66589;47.458;9.644;2023-05-10T12:11:19;1.40;;;0.15;;
38935;SDS011;66589;47.458;9.644;2023-05-10T12:13:46;0.85;;;0.10;;
38935;SDS011;66589;47.458;9.644;2023-05-10T12:16:15;2.03;;;0.22;;
38935;SDS011;66589;47.458;9.644;2023-05-10T12:18:43;1.67;;;0.10;;
38935;SDS011;66589;47.458;9.644;2023-05-10T12:21:12;4.53;;;0.10;;
38935;SDS011;66589;47.458;9.644;2023-05-10T12:23:38;3.67;;;0.10;;
38935;SDS011;66589;47.458;9.644;2023-05-10T12:26:05;1.02;;;0.10;;
38935;SDS011;66589;47.458;9.644;2023-05-10T12:28:32;1.50;;;0.10;;
38935;SDS011;66589;47.458;9.644;2023-05-10T12:31:01;1.95;;;0.10;;
38935;SDS011;66589;47.458;9.644;2023-05-10T12:33:34;2.13;;;0.20;;
38935;SDS011;66589;47.458;9.644;2023-05-10T12:36:08;2.13;;;0.25;;
38935;SDS011;66589;47.458;9.644;2023-05-10T12:38:36;1.60;;;0.30;;
38935;SDS011;66589;47.458;9.644;2023-05-10T12:41:10;3.33;;;0.20;;
38935;SDS011;66589;47.458;9.644;2023-05-10T12:43:38;1.10;;;0.10;;
38935;SDS011;66589;47.458;9.644;2023-05-10T12:46:08;0.82;;;0.10;;
38935;SDS011;66589;47.458;9.644;2023-05-10T12:48:35;2.15;;;0.22;;
38935;SDS011;66589;47.458;9.644;2023-05-10T12:51:02;2.22;;;0.20;;
38935;SDS011;66589;47.458;9.644;2023-05-10T12:53:29;2.92;;;0.15;;
38935;SDS011;66589;47.458;9.644;2023-05-10T12:55:55;0.40;;;0.00;;
38935;SDS011;66589;47.458;9.644;2023-05-10T12:58:21;2.42;;;0.13;;
38935;SDS011;66589;47.458;9.644;2023-05-10T13:00:46;2.33;;;0.10;;
38935;SDS011;66589;47.458;9.644;2023-05-10T13:03:12;1.35;;;0.20;;
38935;SDS011;66589;47.458;9.644;2023-05-10T13:05:38;1.40;;;0.10;;
38935;SDS011;66589;47.458;9.644;2023-05-10T13:08:04;3.72;;;0.30;;
38935;SDS011;66589;47.458;9.644;2023-05-10T13:10:30;5.50;;;0.15;;
38935;SDS011;66589;47.458;9.644;2023-05-10T13:12:59;6.75;;;0.22;;
38935;SDS011;66589;47.458;9.644;2023-05-10T13:15:25;1.35;;;0.10;;
38935;SDS011;66589;47.458;9.644;2023-05-10T13:17:51;2.22;;;0.10;;
38935;SDS011;66589;47.458;9.644;2023-05-10T13:20:18;2.10;;;0.30;;
38935;SDS011;66589;47.458;9.644;2023-05-10T13:22:43;1.02;;;0.13;;
38935;SDS011;66589;47.458;9.644;2023-05-10T13:25:10;1.48;;;0.10;;
38935;SDS011;66589;47.458;9.644;2023-05-10T13:27:36;2.40;;;0.17;;
38935;SDS011;66589;47.458;9.644;2023-05-10T13:30:05;1.02;;;0.10;;
38935;SDS011;66589;47.458;9.644;2023-05-10T13:32:32;1.50;;;0.13;;
38935;SDS011;66589;47.458;9.644;2023-05-10T13:34:58;1.77;;;0.20;;
38935;SDS011;66589;47.458;9.644;2023-05-10T13:37:24;3.05;;;0.15;;
38935;SDS011;66589;47.458;9.644;2023-05-10T13:39:50;1.05;;;0.20;;
38935;SDS011;66589;47.458;9.644;2023-05-10T13:42:15;4.05;;;0.13;;
38935;SDS011;66589;47.458;9.644;2023-05-10T13:44:42;2.42;;;0.13;;
38935;SDS011;66589;47.458;9.644;2023-05-10T13:47:07;2.30;;;0.10;;
38935;SDS011;66589;47.458;9.644;2023-05-10T13:49:33;1.70;;;0.20;;
38935;SDS011;66589;47.458;9.644;2023-05-10T13:51:59;3.83;;;0.30;;
38935;SDS011;66589;47.458;9.644;2023-05-10T13:54:31;1.27;;;0.20;;
38935;SDS011;66589;47.458;9.644;2023-05-10T13:56:58;1.38;;;0.13;;
38935;SDS011;66589;47.458;9.644;2023-05-10T13:59:24;2.38;;;0.22;;
38935;SDS011;66589;47.458;9.644;2023-05-10T14:01:49;3.55;;;0.20;;
38935;SDS011;66589;47.458;9.644;2023-05-10T14:04:15;2.85;;;0.30;;
38935;SDS011;66589;47.458;9.644;2023-05-10T14:06:41;2.53;;;0.15;;
38935;SDS011;66589;47.458;9.644;2023-05-10T14:09:06;5.07;;;0.40;;
38935;SDS011;66589;47.458;9.644;2023-05-10T14:11:32;1.60;;;0.10;;
38935;SDS011;66589;47.458;9.644;2023-05-10T14:13:58;4.10;;;0.15;;
38935;SDS011;66589;47.458;9.644;2023-05-10T14:16:23;1.67;;;0.10;;
38935;SDS011;66589;47.458;9.644;2023-05-10T14:18:49;1.20;;;0.22;;
38935;SDS011;66589;47.458;9.644;2023-05-10T14:21:15;1.27;;;0.30;;
38935;SDS011;66589;47.458;9.644;2023-05-10T14:23:40;3.15;;;0.20;;
38935;SDS011;66589;47.458;9.644;2023-05-10T14:26:06;3.03;;;0.10;;
38935;SDS011;66589;47.458;9.644;2023-05-10T14:28:32;1.55;;;0.10;;
38935;SDS011;66589;47.458;9.644;2023-05-10T14:30:58;1.88;;;0.10;;
38935;SDS011;66589;47.458;9.644;2023-05-10T14:33:24;1.13;;;0.10;;
38935;SDS011;66589;47.458;9.644;2023-05-10T14:35:50;2.08;;;0.25;;
38935;SDS011;66589;47.458;9.644;2023-05-10T14:38:16;0.30;;;0.10;;
38935;SDS011;66589;47.458;9.644;2023-05-10T14:40:41;3.45;;;0.10;;
38935;SDS011;66589;47.458;9.644;2023-05-10T14:43:08;1.02;;;0.10;;
38935;SDS011;66589;47.458;9.644;2023-05-10T14:45:34;1.10;;;0.17;;
38935;SDS011;66589;47.458;9.644;2023-05-10T14:48:00;0.52;;;0.10;;
38935;SDS011;66589;47.458;9.644;2023-05-10T14:50:29;0.85;;;0.10;;
38935;SDS011;66589;47.458;9.644;2023-05-10T14:52:55;5.40;;;0.20;;
38935;SDS011;66589;47.458;9.644;2023-05-10T14:55:21;1.88;;;0.00;;
38935;SDS011;66589;47.458;9.644;2023-05-10T14:57:46;1.00;;;0.30;;
38935;SDS011;66589;47.458;9.644;2023-05-10T15:00:14;1.50;;;0.10;;
38935;SDS011;66589;47.458;9.644;2023-05-10T15:02:40;1.05;;;0.10;;
38935;SDS011;66589;47.458;9.644;2023-05-10T15:05:06;0.65;;;0.10;;
38935;SDS011;66589;47.458;9.644;2023-05-10T15:07:32;2.45;;;0.20;;
38935;SDS011;66589;47.458;9.644;2023-05-10T15:09:58;1.38;;;0.20;;
38935;SDS011;66589;47.458;9.644;2023-05-10T15:12:24;1.08;;;0.40;;
38935;SDS011;66589;47.458;9.644;2023-05-10T15:14:49;2.45;;;0.10;;
38935;SDS011;66589;47.458;9.644;2023-05-10T15:17:15;1.25;;;0.22;;
38935;SDS011;66589;47.458;9.644;2023-05-10T15:19:41;3.97;;;0.73;;
38935;SDS011;66589;47.458;9.644;2023-05-10T15:22:07;3.33;;;0.82;;
38935;SDS011;66589;47.458;9.644;2023-05-10T15:24:33;6.82;;;2.65;;
38935;SDS011;66589;47.458;9.644;2023-05-10T15:26:59;10.45;;;3.10;;
38935;SDS011;66589;47.458;9.644;2023-05-10T15:29:25;6.50;;;2.75;;
38935;SDS011;66589;47.458;9.644;2023-05-10T15:31:51;2.30;;;0.55;;
38935;SDS011;66589;47.458;9.644;2023-05-10T15:34:17;2.50;;;0.25;;
38935;SDS011;66589;47.458;9.644;2023-05-10T15:36:43;1.75;;;0.30;;
38935;SDS011;66589;47.458;9.644;2023-05-10T15:39:10;1.42;;;0.35;;
38935;SDS011;66589;47.458;9.644;2023-05-10T15:41:36;1.23;;;0.20;;
38935;SDS011;66589;47.458;9.644;2023-05-10T15:44:01;1.52;;;0.10;;
38935;SDS011;66589;47.458;9.644;2023-05-10T15:46:28;3.90;;;0.20;;
38935;SDS011;66589;47.458;9.644;2023-05-10T15:48:53;2.22;;;0.20;;
38935;SDS011;66589;47.458;9.644;2023-05-10T15:51:19;1.30;;;0.32;;
38935;SDS011;66589;47.458;9.644;2023-05-10T15:53:45;0.70;;;0.17;;
38935;SDS011;66589;47.458;9.644;2023-05-10T15:56:11;1.13;;;0.10;;
38935;SDS011;66589;47.458;9.644;2023-05-10T15:58:37;2.40;;;0.40;;
38935;SDS011;66589;47.458;9.644;2023-05-10T16:01:03;2.67;;;0.30;;
38935;SDS011;66589;47.458;9.644;2023-05-10T16:03:30;1.98;;;0.20;;
38935;SDS011;66589;47.458;9.644;2023-05-10T16:05:56;1.52;;;0.10;;
38935;SDS011;66589;47.458;9.644;2023-05-10T16:08:21;2.47;;;0.20;;
38935;SDS011;66589;47.458;9.644;2023-05-10T16:10:48;0.95;;;0.10;;
38935;SDS011;66589;47.458;9.644;2023-05-10T16:13:15;1.67;;;0.25;;
38935;SDS011;66589;47.458;9.644;2023-05-10T16:15:41;0.70;;;0.20;;
38935;SDS011;66589;47.458;9.644;2023-05-10T16:18:07;1.25;;;0.10;;
38935;SDS011;66589;47.458;9.644;2023-05-10T16:20:33;2.55;;;0.20;;
38935;SDS011;66589;47.458;9.644;2023-05-10T16:23:03;1.35;;;0.10;;
38935;SDS011;66589;47.458;9.644;2023-05-10T16:25:30;2.47;;;0.30;;
38935;SDS011;66589;47.458;9.644;2023-05-10T16:27:56;1.55;;;0.10;;
38935;SDS011;66589;47.458;9.644;2023-05-10T16:30:22;1.45;;;0.10;;
38935;SDS011;66589;47.458;9.644;2023-05-10T16:32:51;1.25;;;0.10;;
38935;SDS011;66589;47.458;9.644;2023-05-10T16:35:20;1.17;;;0.10;;
38935;SDS011;66589;47.458;9.644;2023-05-10T16:37:47;1.13;;;0.20;;
38935;SDS011;66589;47.458;9.644;2023-05-10T16:40:13;0.95;;;0.10;;
38935;SDS011;66589;47.458;9.644;2023-05-10T16:42:39;1.20;;;0.10;;
38935;SDS011;66589;47.458;9.644;2023-05-10T16:45:05;3.95;;;0.10;;
38935;SDS011;66589;47.458;9.644;2023-05-10T16:47:34;2.08;;;0.15;;
38935;SDS011;66589;47.458;9.644;2023-05-10T16:50:02;3.45;;;0.32;;
38935;SDS011;66589;47.458;9.644;2023-05-10T16:52:29;3.22;;;2.08;;
38935;SDS011;66589;47.458;9.644;2023-05-10T16:54:56;2.15;;;0.43;;
38935;SDS011;66589;47.458;9.644;2023-05-10T16:57:22;0.68;;;0.20;;
38935;SDS011;66589;47.458;9.644;2023-05-10T16:59:48;2.67;;;0.10;;
38935;SDS011;66589;47.458;9.644;2023-05-10T17:02:17;1.35;;;0.17;;
38935;SDS011;66589;47.458;9.644;2023-05-10T17:04:47;3.53;;;0.20;;
38935;SDS011;66589;47.458;9.644;2023-05-10T17:07:12;0.80;;;0.10;;
38935;SDS011;66589;47.458;9.644;2023-05-10T17:09:40;0.38;;;0.20;;
38935;SDS011;66589;47.458;9.644;2023-05-10T17:12:06;0.77;;;0.00;;
38935;SDS011;66589;47.458;9.644;2023-05-10T17:14:32;0.73;;;0.00;;
38935;SDS011;66589;47.458;9.644;2023-05-10T17:16:58;0.77;;;0.10;;
38935;SDS011;66589;47.458;9.644;2023-05-10T17:19:24;0.35;;;0.03;;
38935;SDS011;66589;47.458;9.644;2023-05-10T17:21:50;3.38;;;0.10;;
38935;SDS011;66589;47.458;9.644;2023-05-10T17:24:15;2.60;;;0.10;;
38935;SDS011;66589;47.458;9.644;2023-05-10T17:26:41;2.75;;;0.20;;
38935;SDS011;66589;47.458;9.644;2023-05-10T17:29:07;0.95;;;0.20;;
38935;SDS011;66589;47.458;9.644;2023-05-10T17:31:32;1.20;;;0.10;;
38935;SDS011;66589;47.458;9.644;2023-05-10T17:33:58;1.17;;;0.20;;
38935;SDS011;66589;47.458;9.644;2023-05-10T17:36:24;0.63;;;0.10;;
38935;SDS011;66589;47.458;9.644;2023-05-10T17:38:50;0.60;;;0.13;;
38935;SDS011;66589;47.458;9.644;2023-05-10T17:41:16;1.30;;;0.10;;
38935;SDS011;66589;47.458;9.644;2023-05-10T17:43:42;2.95;;;0.10;;
38935;SDS011;66589;47.458;9.644;2023-05-10T17:46:08;1.15;;;0.10;;
38935;SDS011;66589;47.458;9.644;2023-05-10T17:48:33;0.95;;;0.05;;
38935;SDS011;66589;47.458;9.644;2023-05-10T17:51:01;0.65;;;0.10;;
38935;SDS011;66589;47.458;9.644;2023-05-10T17:53:27;0.50;;;0.00;;
38935;SDS011;66589;47.458;9.644;2023-05-10T17:55:53;0.50;;;0.00;;
38935;SDS011;66589;47.458;9.644;2023-05-10T17:58:22;0.65;;;0.00;;
38935;SDS011;66589;47.458;9.644;2023-05-10T18:00:50;0.30;;;0.00;;
38935;SDS011;66589;47.458;9.644;2023-05-10T18:03:16;1.67;;;0.10;;
38935;SDS011;66589;47.458;9.644;2023-05-10T18:05:42;4.88;;;0.47;;
38935;SDS011;66589;47.458;9.644;2023-05-10T18:08:08;0.93;;;0.10;;
38935;SDS011;66589;47.458;9.644;2023-05-10T18:10:34;1.80;;;0.10;;
38935;SDS011;66589;47.458;9.644;2023-05-10T18:13:01;0.47;;;0.05;;
38935;SDS011;66589;47.458;9.644;2023-05-10T18:15:28;0.40;;;0.00;;
38935;SDS011;66589;47.458;9.644;2023-05-10T18:18:00;1.83;;;0.08;;
38935;SDS011;66589;47.458;9.644;2023-05-10T18:20:27;1.35;;;0.03;;